Time;durP1;ratioP1;P1;durP2;ratioP2;P2;SDS_P1;SDS_P2;PMS_P1;PMS_P2;Temp;Humidity;BMP_temperature;BMP_pressure;BME280_temperature;BME280_humidity;BME280_pressure;Samples;Min_cycle;Max_cycle;Signal;HPM_P1;HPM_P2
2023/01/30 00:00:52;;;;;;;15.15;8.23;;;;;;;6.39;53.74;100998.09;5067940;27;96788;-70
2023/01/30 00:03:18;;;;;;;13.20;8.35;;;;;;;6.40;53.96;100999.84;5070099;27;96922;-70
2023/01/30 00:05:45;;;;;;;13.70;8.93;;;;;;;6.33;54.02;100992.94;5078435;27;99846;-69
2023/01/30 00:08:11;;;;;;;16.52;9.73;;;;;;;6.21;54.21;100975.63;5087536;27;98798;-71
2023/01/30 00:10:39;;;;;;;14.80;8.70;;;;;;;6.37;53.82;100968.38;5089631;27;97286;-70
2023/01/30 00:13:05;;;;;;;17.00;9.65;;;;;;;6.11;54.52;100950.38;5085837;27;97190;-69
2023/01/30 00:15:32;;;;;;;15.20;9.82;;;;;;;6.01;54.82;100951.41;5086332;27;98853;-69
2023/01/30 00:17:58;;;;;;;15.48;9.50;;;;;;;6.12;54.93;100943.38;5078207;27;98848;-69
2023/01/30 00:20:25;;;;;;;14.70;8.45;;;;;;;6.18;54.29;100940.66;5073987;27;96717;-70
2023/01/30 00:22:51;;;;;;;17.25;9.13;;;;;;;6.14;54.34;100941.63;5082395;27;96867;-69
2023/01/30 00:25:17;;;;;;;15.50;9.13;;;;;;;6.34;53.80;100931.69;5081422;27;99032;-71
2023/01/30 00:27:45;;;;;;;15.98;9.13;;;;;;;6.18;54.54;100928.41;5066918;27;97863;-69
2023/01/30 00:30:12;;;;;;;15.20;9.15;;;;;;;6.06;54.54;100917.25;5067761;27;96811;-70
2023/01/30 00:32:38;;;;;;;17.23;9.35;;;;;;;6.34;54.24;100895.81;5062707;27;96835;-69
2023/01/30 00:35:06;;;;;;;19.58;10.23;;;;;;;6.31;53.81;100889.72;5067080;27;100032;-70
2023/01/30 00:37:33;;;;;;;17.10;9.10;;;;;;;6.09;54.78;100872.63;5070292;27;98472;-70
2023/01/30 00:39:59;;;;;;;16.48;9.38;;;;;;;6.21;54.65;100861.91;5063400;27;97619;-69
2023/01/30 00:47:57;;;;;;;19.70;11.05;;;;;;;6.29;54.49;100828.56;5069302;27;99043;-70
2023/01/30 00:50:23;;;;;;;15.65;9.38;;;;;;;6.31;54.00;100816.25;5078189;27;97920;-72
2023/01/30 00:52:50;;;;;;;18.80;10.95;;;;;;;6.45;53.68;100809.00;5071878;27;97459;-70
2023/01/30 00:55:16;;;;;;;16.35;9.38;;;;;;;6.12;54.35;100809.59;5078892;27;100134;-71
2023/01/30 00:57:44;;;;;;;17.35;10.20;;;;;;;6.09;55.11;100799.16;5071490;27;97692;-70
2023/01/30 01:00:16;;;;;;;17.10;10.20;;;;;;;6.13;54.79;100788.56;5073755;27;99363;-71
2023/01/30 01:02:42;;;;;;;18.58;10.13;;;;;;;6.29;54.17;100794.44;5069233;27;97666;-70
2023/01/30 01:05:09;;;;;;;18.35;10.98;;;;;;;6.42;54.09;100798.59;5077175;27;97653;-69
2023/01/30 01:07:35;;;;;;;17.77;9.55;;;;;;;6.18;54.39;100791.97;5070061;27;99165;-70
2023/01/30 01:10:02;;;;;;;17.90;10.10;;;;;;;6.09;54.68;100788.66;5079025;27;98875;-69
2023/01/30 01:12:28;;;;;;;18.67;10.32;;;;;;;6.12;54.76;100781.59;5072602;27;97024;-70
2023/01/30 01:14:54;;;;;;;18.85;10.07;;;;;;;6.24;54.69;100775.25;5078698;27;100738;-71
2023/01/30 01:17:22;;;;;;;16.60;9.68;;;;;;;6.36;54.11;100764.56;5076079;27;98888;-69
2023/01/30 01:19:49;;;;;;;18.10;10.93;;;;;;;6.33;53.88;100717.38;5069860;27;98819;-71
2023/01/30 01:22:15;;;;;;;17.27;10.77;;;;;;;6.27;54.68;100730.63;5069380;27;97152;-71
2023/01/30 01:24:41;;;;;;;21.35;11.90;;;;;;;6.29;54.19;100734.94;5071175;27;99267;-70
2023/01/30 01:27:08;;;;;;;18.95;11.05;;;;;;;6.42;53.88;100722.47;5067960;27;100595;-70
2023/01/30 01:29:34;;;;;;;18.08;10.50;;;;;;;6.63;53.93;100719.41;5080691;27;96712;-70
2023/01/30 01:32:00;;;;;;;20.80;10.43;;;;;;;6.76;53.13;100720.06;5071153;27;96803;-69
2023/01/30 01:34:28;;;;;;;19.55;9.65;;;;;;;6.59;53.37;100716.88;5074878;27;101840;-70
2023/01/30 01:36:55;;;;;;;20.58;11.95;;;;;;;6.44;53.96;100706.66;5069455;27;97719;-69
2023/01/30 01:39:22;;;;;;;19.35;11.15;;;;;;;6.37;54.13;100721.66;5071940;27;96766;-71
2023/01/30 01:41:47;;;;;;;21.48;11.02;;;;;;;6.39;54.25;100730.38;5072307;27;97381;-71
2023/01/30 01:44:15;;;;;;;;;;;;;;;6.19;54.32;100738.63;5076380;27;98940;-70
2023/01/30 01:46:48;;;;;;;20.00;11.50;;;;;;;6.21;54.69;100742.09;5073646;27;101652;-69
2023/01/30 01:49:20;;;;;;;19.38;10.73;;;;;;;6.16;54.83;100735.19;5075465;27;96789;-70
2023/01/30 01:51:54;;;;;;;18.17;11.60;;;;;;;6.26;54.52;100735.00;5076584;27;97012;-70
2023/01/30 01:54:25;;;;;;;18.05;10.60;;;;;;;6.22;54.63;100712.34;5072848;27;99208;-70
2023/01/30 01:56:52;;;;;;;21.48;11.75;;;;;;;6.35;54.38;100711.22;5072472;27;98897;-70
2023/01/30 01:59:25;;;;;;;21.48;12.48;;;;;;;6.34;54.21;100700.75;5071673;27;97697;-70
2023/01/30 02:01:55;;;;;;;17.42;10.18;;;;;;;6.42;54.66;100697.97;5080525;27;96759;-70
2023/01/30 02:05:00;;;;;;;22.92;11.95;;;;;;;5.86;55.97;100681.47;5063025;27;102150;-70
2023/01/30 02:07:16;;;;;;;20.63;11.77;;;;;;;6.04;56.57;100669.84;5072030;27;98382;-70
2023/01/30 02:09:43;;;;;;;22.27;12.52;;;;;;;6.09;57.02;100657.50;5078587;27;97458;-70
2023/01/30 02:12:12;;;;;;;23.95;13.60;;;;;;;5.85;58.29;100649.13;5074163;27;97349;-69
2023/01/30 02:14:40;;;;;;;22.85;12.18;;;;;;;5.98;58.23;100641.94;5080268;27;99194;-71
2023/01/30 02:17:06;;;;;;;22.23;12.32;;;;;;;6.02;57.99;100640.13;5090493;27;98933;-70
2023/01/30 02:19:41;;;;;;;21.00;12.35;;;;;;;5.79;59.17;100622.16;5088735;27;97200;-69
2023/01/30 02:22:36;;;;;;;23.40;13.80;;;;;;;6.09;58.66;100607.66;5091924;27;97198;-70
2023/01/30 02:25:22;;;;;;;22.88;12.50;;;;;;;6.13;58.22;100598.81;5087612;27;98870;-69
2023/01/30 02:28:20;;;;;;;25.58;14.23;;;;;;;6.02;58.85;100598.16;5073246;27;98041;-69
2023/01/30 02:31:18;;;;;;;26.42;12.70;;;;;;;6.08;58.57;100585.81;5075044;27;96865;-70
2023/01/30 02:33:50;;;;;;;;;;;;;;;6.21;57.76;100589.91;5070061;27;97927;-69
2023/01/30 02:36:25;;;;;;;24.08;13.02;;;;;;;6.25;58.23;100582.81;5067735;27;97797;-70
2023/01/30 02:39:01;;;;;;;26.00;13.83;;;;;;;6.04;58.40;100585.91;5073726;27;98837;-69
2023/01/30 02:41:37;;;;;;;23.20;13.67;;;;;;;6.14;58.50;100583.06;5075646;27;98041;-69
2023/01/30 02:44:05;;;;;;;28.08;14.27;;;;;;;5.99;59.72;100568.47;5071608;27;97354;-69
2023/01/30 02:46:39;;;;;;;25.40;12.65;;;;;;;5.80;61.27;100556.56;5068778;27;101120;-70
2023/01/30 02:49:10;;;;;;;26.38;13.80;;;;;;;5.84;62.21;100562.66;5075691;27;100404;-70
2023/01/30 02:51:38;;;;;;;25.52;13.20;;;;;;;5.80;61.92;100555.72;5072988;27;96812;-70
2023/01/30 02:54:05;;;;;;;25.90;13.23;;;;;;;5.68;62.29;100543.69;5070742;27;96814;-70
2023/01/30 02:56:44;;;;;;;26.85;13.63;;;;;;;5.96;62.23;100544.94;5073377;27;99260;-69
2023/01/30 02:59:11;;;;;;;23.08;13.48;;;;;;;5.91;61.84;100527.53;5069693;27;98888;-69
2023/01/30 03:02:04;;;;;;;23.88;12.35;;;;;;;5.83;62.20;100527.69;5068752;27;96842;-71
2023/01/30 03:04:48;;;;;;;24.65;13.43;;;;;;;6.04;61.43;100518.53;5062540;27;98304;-69
2023/01/30 03:07:30;;;;;;;26.13;12.60;;;;;;;6.24;60.89;100513.72;5067741;27;99495;-70
2023/01/30 03:10:06;;;;;;;24.60;14.02;;;;;;;6.15;60.94;100513.09;5079289;27;97836;-69
2023/01/30 03:12:43;;;;;;;24.15;13.65;;;;;;;6.26;60.20;100503.22;5066073;27;97619;-70
2023/01/30 03:15:13;;;;;;;26.02;12.77;;;;;;;6.38;59.59;100509.06;5065689;27;97466;-69
2023/01/30 03:17:46;;;;;;;22.27;12.45;;;;;;;6.38;59.33;100492.44;5074887;27;99077;-70
2023/01/30 03:20:14;;;;;;;25.70;13.55;;;;;;;6.33;59.92;100489.94;5069059;27;99151;-70
2023/01/30 03:22:40;;;;;;;24.15;13.77;;;;;;;6.50;59.41;100475.56;5063460;27;97056;-70
2023/01/30 03:25:08;;;;;;;24.83;13.77;;;;;;;6.43;59.96;100484.50;5067742;27;98441;-69
2023/01/30 03:27:35;;;;;;;26.77;13.55;;;;;;;6.40;59.51;100490.66;5066120;27;99586;-70
2023/01/30 03:30:02;;;;;;;24.40;13.43;;;;;;;6.34;59.77;100485.53;5066649;27;98811;-68
2023/01/30 03:32:28;;;;;;;23.15;13.00;;;;;;;5.95;61.00;100472.41;5072889;27;97720;-68
2023/01/30 03:34:58;;;;;;;27.20;12.75;;;;;;;5.69;61.73;100468.53;5067274;27;98565;-69
2023/01/30 03:37:25;;;;;;;25.02;14.05;;;;;;;5.89;61.52;100477.78;5070338;27;99315;-68
2023/01/30 03:39:52;;;;;;;23.83;13.60;;;;;;;6.05;60.94;100473.06;5073024;27;98810;-68
2023/01/30 03:42:18;;;;;;;25.70;13.38;;;;;;;6.04;61.12;100470.47;5075662;27;96752;-69
2023/01/30 03:44:45;;;;;;;22.77;12.95;;;;;;;6.19;60.86;100462.25;5066352;27;98111;-69
2023/01/30 03:47:11;;;;;;;20.33;11.35;;;;;;;6.27;60.64;100458.56;5071803;27;98929;-69
2023/01/30 03:49:37;;;;;;;22.58;13.25;;;;;;;6.48;60.53;100444.09;5064751;27;100911;-69
2023/01/30 03:52:05;;;;;;;25.95;13.02;;;;;;;6.60;60.35;100446.44;5080263;27;96776;-70
2023/01/30 03:54:32;;;;;;;23.98;13.13;;;;;;;6.41;61.08;100445.16;5070572;27;97117;-68
2023/01/30 03:56:58;;;;;;;22.60;13.20;;;;;;;6.26;61.47;100430.59;5071497;27;99123;-69
2023/01/30 03:59:24;;;;;;;23.90;13.15;;;;;;;6.35;61.46;100429.53;5064238;27;97606;-70
2023/01/30 04:01:51;;;;;;;21.08;12.45;;;;;;;6.32;61.25;100424.34;5071250;27;96908;-70
2023/01/30 04:04:17;;;;;;;25.30;13.15;;;;;;;6.45;61.27;100419.69;5065378;27;97756;-70
2023/01/30 04:06:43;;;;;;;24.58;13.23;;;;;;;6.58;60.86;100411.47;5071351;27;99496;-70
2023/01/30 04:09:11;;;;;;;23.70;12.75;;;;;;;6.67;60.41;100395.50;5074782;27;99106;-69
2023/01/30 04:11:38;;;;;;;24.40;13.13;;;;;;;6.84;60.00;100404.69;5089623;27;97391;-70
2023/01/30 04:14:04;;;;;;;24.35;12.52;;;;;;;6.85;59.75;100382.78;5082556;27;97218;-70
2023/01/30 04:16:30;;;;;;;23.88;13.07;;;;;;;6.87;59.45;100387.13;5091731;27;99155;-69
2023/01/30 04:18:57;;;;;;;23.70;12.18;;;;;;;6.54;60.39;100380.97;5092506;27;100795;-68
2023/01/30 04:21:23;;;;;;;26.38;13.65;;;;;;;6.54;60.87;100388.84;5084173;27;97834;-69
2023/01/30 04:23:49;;;;;;;20.90;11.20;;;;;;;6.42;61.11;100388.28;5079670;27;96725;-69
2023/01/30 04:26:17;;;;;;;22.75;13.55;;;;;;;6.67;60.59;100379.75;5079545;27;98804;-69
2023/01/30 04:28:44;;;;;;;24.50;12.68;;;;;;;6.55;60.75;100380.06;5063097;27;99206;-70
2023/01/30 04:31:10;;;;;;;21.80;12.75;;;;;;;6.58;60.44;100379.09;5073012;27;96828;-70
2023/01/30 04:33:38;;;;;;;21.88;12.65;;;;;;;6.55;60.60;100377.44;5078890;27;97506;-69
2023/01/30 04:36:07;;;;;;;21.58;11.77;;;;;;;6.69;60.48;100367.44;5066316;27;99209;-71
2023/01/30 04:38:34;;;;;;;20.25;12.40;;;;;;;6.80;59.81;100365.41;5078250;27;99147;-70
2023/01/30 04:41:01;;;;;;;21.75;12.73;;;;;;;6.59;60.49;100365.94;5070040;27;97106;-70
2023/01/30 04:43:30;;;;;;;21.05;11.65;;;;;;;6.26;61.79;100362.38;5073723;27;97351;-70
2023/01/30 04:45:56;;;;;;;20.80;12.40;;;;;;;6.42;61.89;100372.53;5062510;27;99242;-70
2023/01/30 04:48:24;;;;;;;25.58;12.50;;;;;;;6.46;62.12;100351.41;5063428;27;101500;-70
2023/01/30 04:50:52;;;;;;;20.83;12.85;;;;;;;6.51;62.14;100346.91;5067254;27;96717;-70
2023/01/30 04:53:20;;;;;;;21.45;13.07;;;;;;;6.48;62.40;100347.00;5072422;27;99150;-69
2023/01/30 04:55:47;;;;;;;22.70;12.55;;;;;;;6.75;61.77;100342.78;5069150;27;98904;-70
2023/01/30 04:58:13;;;;;;;20.55;11.35;;;;;;;6.76;61.75;100342.72;5066184;27;99210;-70
2023/01/30 05:00:41;;;;;;;23.67;12.60;;;;;;;6.80;61.91;100333.88;5067659;27;97257;-69
2023/01/30 05:03:09;;;;;;;24.08;13.68;;;;;;;6.90;61.83;100326.59;5070858;27;97190;-70
2023/01/30 05:05:35;;;;;;;22.17;12.85;;;;;;;6.85;62.23;100335.50;5066894;27;98820;-70
2023/01/30 05:08:01;;;;;;;22.58;12.60;;;;;;;6.77;63.13;100320.81;5081679;27;98793;-70
2023/01/30 05:10:28;;;;;;;26.40;14.13;;;;;;;6.92;63.24;100332.69;5072167;27;99545;-71
2023/01/30 05:12:55;;;;;;;25.27;13.95;;;;;;;6.60;64.33;100337.94;5067888;27;97206;-70
2023/01/30 05:15:21;;;;;;;23.02;12.73;;;;;;;6.42;65.48;100318.28;5073500;27;99183;-70
2023/01/30 05:17:49;;;;;;;26.98;13.70;;;;;;;6.31;66.43;100318.53;5078817;27;99274;-71
2023/01/30 05:20:15;;;;;;;25.38;13.85;;;;;;;6.24;66.76;100310.84;5067566;27;99021;-70
2023/01/30 05:22:41;;;;;;;24.60;13.40;;;;;;;6.48;65.96;100306.75;5059220;27;98716;-70
2023/01/30 05:25:09;;;;;;;25.20;14.43;;;;;;;6.82;65.13;100304.09;5073513;27;97792;-69
2023/01/30 05:27:35;;;;;;;24.92;12.77;;;;;;;6.73;65.03;100294.69;5068721;27;99153;-69
2023/01/30 05:30:02;;;;;;;27.10;13.80;;;;;;;6.36;66.79;100290.44;5073121;27;96715;-70
2023/01/30 05:32:29;;;;;;;24.50;13.70;;;;;;;6.71;65.73;100292.09;5072239;27;99659;-69
2023/01/30 05:35:08;;;;;;;30.65;13.95;;;;;;;6.79;65.72;100284.88;5070304;27;99138;-68
2023/01/30 05:37:36;;;;;;;30.23;14.27;;;;;;;6.88;65.28;100281.16;5063053;27;99736;-68
2023/01/30 05:40:03;;;;;;;30.48;15.65;;;;;;;6.79;65.48;100273.53;5077174;27;96736;-67
2023/01/30 05:42:30;;;;;;;24.17;13.85;;;;;;;6.78;65.61;100275.28;5066745;27;97141;-67
2023/01/30 05:44:56;;;;;;;26.45;13.52;;;;;;;6.89;65.11;100264.50;5070417;27;98836;-68
2023/01/30 05:47:23;;;;;;;26.15;12.98;;;;;;;6.85;65.18;100265.47;5072103;27;99018;-68
2023/01/30 05:49:49;;;;;;;28.73;15.75;;;;;;;6.62;66.05;100250.38;5074037;27;98692;-67
2023/01/30 05:52:17;;;;;;;27.55;14.00;;;;;;;6.67;66.23;100252.84;5070334;27;96767;-67
2023/01/30 05:54:44;;;;;;;24.48;13.23;;;;;;;6.66;66.18;100243.25;5074716;27;99462;-67
2023/01/30 05:57:10;;;;;;;24.88;14.10;;;;;;;6.74;66.15;100244.78;5083178;27;98812;-67
2023/01/30 05:59:36;;;;;;;30.15;14.95;;;;;;;6.70;66.80;100240.50;5074575;27;97581;-67
2023/01/30 06:02:03;;;;;;;24.55;12.23;;;;;;;6.84;65.97;100234.84;5071567;27;97453;-67
2023/01/30 06:04:29;;;;;;;26.20;13.55;;;;;;;6.78;66.32;100227.16;5072446;27;98886;-67
2023/01/30 06:06:55;;;;;;;23.20;13.35;;;;;;;6.80;66.31;100228.84;5076615;27;99347;-67
2023/01/30 06:09:23;;;;;;;24.77;14.02;;;;;;;6.71;66.67;100230.84;5089849;27;96993;-68
2023/01/30 06:11:51;;;;;;;23.02;13.57;;;;;;;6.93;66.07;100231.97;5078932;27;96772;-68
2023/01/30 06:14:17;;;;;;;25.60;13.40;;;;;;;6.90;66.26;100232.06;5075358;27;100781;-68
2023/01/30 06:16:44;;;;;;;24.27;14.05;;;;;;;7.11;65.82;100226.19;5070479;27;99071;-68
2023/01/30 06:19:10;;;;;;;25.13;13.80;;;;;;;6.86;66.66;100224.31;5072380;27;99225;-67
2023/01/30 06:21:36;;;;;;;25.52;14.10;;;;;;;6.61;67.70;100232.03;5070366;27;97235;-69
2023/01/30 06:24:03;;;;;;;22.77;12.27;;;;;;;6.83;67.26;100227.03;5074965;27;100846;-68
2023/01/30 06:26:31;;;;;;;29.20;13.75;;;;;;;6.79;67.68;100226.25;5068920;27;99168;-69
2023/01/30 06:28:57;;;;;;;28.20;13.80;;;;;;;6.91;67.30;100228.53;5085745;27;96697;-70
2023/01/30 06:31:24;;;;;;;23.77;13.48;;;;;;;6.89;67.35;100224.25;5071109;27;96973;-69
2023/01/30 06:33:50;;;;;;;26.08;14.10;;;;;;;7.02;67.15;100226.44;5066885;27;97849;-68
2023/01/30 06:36:16;;;;;;;23.23;12.27;;;;;;;6.78;68.05;100243.78;5077199;27;98806;-68
2023/01/30 06:38:43;;;;;;;24.98;14.23;;;;;;;6.75;68.05;100235.13;5075667;27;97796;-68
2023/01/30 06:41:09;;;;;;;22.42;12.45;;;;;;;7.10;67.45;100232.34;5079749;27;96882;-68
2023/01/30 06:43:37;;;;;;;21.83;11.77;;;;;;;6.92;67.62;100237.28;5066622;27;98868;-69
2023/01/30 06:46:03;;;;;;;21.65;11.68;;;;;;;6.78;68.53;100228.00;5074828;27;99033;-67
2023/01/30 06:48:30;;;;;;;22.58;12.25;;;;;;;6.78;68.68;100229.78;5068928;27;97335;-68
2023/01/30 06:50:56;;;;;;;22.27;11.95;;;;;;;6.95;67.99;100229.31;5069035;27;98907;-68
2023/01/30 06:53:29;;;;;;;22.27;11.88;;;;;;;6.84;68.59;100228.75;5070944;27;98897;-69
2023/01/30 06:55:55;;;;;;;19.67;11.65;;;;;;;6.89;68.65;100211.97;5077472;27;98776;-68
2023/01/30 06:58:22;;;;;;;21.55;11.15;;;;;;;7.02;68.21;100217.72;5075137;27;96939;-67
2023/01/30 07:00:49;;;;;;;19.17;10.07;;;;;;;6.90;68.97;100212.81;5073704;27;97252;-67
2023/01/30 07:03:18;;;;;;;19.60;10.27;;;;;;;6.74;69.47;100215.03;5065963;27;101707;-68
2023/01/30 07:05:46;;;;;;;15.68;9.82;;;;;;;6.74;70.32;100207.16;5073798;27;97672;-69
2023/01/30 07:08:13;;;;;;;16.23;10.02;;;;;;;6.78;69.85;100206.16;5076529;27;97371;-70
2023/01/30 07:10:40;;;;;;;18.83;9.90;;;;;;;6.88;70.56;100212.00;5069492;27;98860;-70
2023/01/30 07:13:07;;;;;;;17.25;9.35;;;;;;;7.22;69.38;100198.75;5067312;27;99379;-70
2023/01/30 07:15:33;;;;;;;16.73;9.77;;;;;;;7.19;69.28;100192.66;5080208;27;98994;-69
2023/01/30 07:18:01;;;;;;;15.73;7.97;;;;;;;7.42;68.78;100198.97;5070058;27;97344;-70
2023/01/30 07:20:30;;;;;;;13.98;8.63;;;;;;;7.24;69.03;100195.16;5077496;27;98557;-69
2023/01/30 07:22:56;;;;;;;15.13;8.90;;;;;;;7.18;69.65;100190.06;5069317;27;99073;-70
2023/01/30 07:25:25;;;;;;;14.85;8.55;;;;;;;6.85;71.45;100197.19;5071131;27;98977;-70
2023/01/30 07:27:52;;;;;;;14.07;8.15;;;;;;;7.33;70.15;100187.00;5079288;27;97269;-69
2023/01/30 07:30:18;;;;;;;16.27;8.43;;;;;;;7.51;69.55;100182.91;5068894;27;98391;-70
2023/01/30 07:32:49;;;;;;;12.18;7.32;;;;;;;7.26;70.17;100182.81;5065383;27;100600;-70
2023/01/30 07:35:17;;;;;;;12.57;7.88;;;;;;;7.59;69.34;100181.75;5081270;27;97551;-69
2023/01/30 07:37:45;;;;;;;10.23;7.18;;;;;;;7.66;68.81;100177.16;5071643;27;96812;-71
2023/01/30 07:40:13;;;;;;;13.30;7.72;;;;;;;7.35;69.99;100179.88;5066891;27;98832;-71
2023/01/30 07:42:39;;;;;;;12.52;7.65;;;;;;;7.64;69.34;100178.13;5071106;27;99176;-69
2023/01/30 07:45:07;;;;;;;10.52;6.40;;;;;;;7.70;69.50;100181.41;5077047;27;99310;-72
2023/01/30 07:47:33;;;;;;;13.05;6.95;;;;;;;7.59;70.43;100192.28;5064223;27;99065;-71
2023/01/30 07:50:02;;;;;;;14.25;6.85;;;;;;;7.63;70.87;100194.78;5065400;27;99590;-71
2023/01/30 07:52:29;;;;;;;11.35;6.55;;;;;;;7.44;71.29;100205.03;5056765;27;99455;-70
2023/01/30 07:54:56;;;;;;;9.68;6.13;;;;;;;7.57;70.97;100209.88;5068216;27;98640;-70
2023/01/30 07:57:22;;;;;;;12.60;7.38;;;;;;;7.50;71.87;100204.84;5065222;27;96803;-70
2023/01/30 07:59:49;;;;;;;9.07;6.18;;;;;;;7.40;71.54;100206.91;5065737;27;97046;-71
2023/01/30 08:02:15;;;;;;;10.75;6.00;;;;;;;7.52;72.02;100205.66;5062876;27;98622;-70
2023/01/30 08:04:42;;;;;;;9.30;5.60;;;;;;;7.45;72.08;100202.38;5063669;27;98948;-71
2023/01/30 08:07:08;;;;;;;9.52;5.50;;;;;;;7.50;72.23;100205.72;5068482;27;97694;-70
2023/01/30 08:09:36;;;;;;;7.97;5.50;;;;;;;7.45;72.60;100205.00;5069975;27;96758;-70
2023/01/30 08:12:02;;;;;;;28.48;15.35;;;;;;;7.78;71.93;100217.97;5065135;27;98890;-69
2023/01/30 08:14:29;;;;;;;10.48;6.20;;;;;;;8.05;70.89;100198.66;5072606;27;99093;-70
2023/01/30 08:16:56;;;;;;;9.52;6.05;;;;;;;8.09;70.61;100204.66;5077763;27;96897;-69
2023/01/30 08:19:22;;;;;;;10.05;5.30;;;;;;;7.87;71.30;100204.53;5073207;27;97049;-69
2023/01/30 08:21:49;;;;;;;10.63;6.03;;;;;;;7.92;71.38;100214.00;5078014;27;99245;-71
2023/01/30 08:24:16;;;;;;;8.70;5.65;;;;;;;7.61;73.12;100203.59;5068978;27;99163;-70
2023/01/30 08:26:43;;;;;;;7.97;5.43;;;;;;;7.72;72.70;100191.88;5075381;27;97137;-70
2023/01/30 08:29:10;;;;;;;5.88;3.95;;;;;;;7.70;72.93;100191.94;5066970;27;96899;-70
2023/01/30 08:31:36;;;;;;;9.05;5.03;;;;;;;8.05;72.06;100169.72;5070952;27;99001;-70
2023/01/30 08:34:03;;;;;;;9.35;5.20;;;;;;;8.18;70.91;100171.00;5062913;27;98922;-72
2023/01/30 08:36:29;;;;;;;7.03;5.15;;;;;;;8.16;71.21;100188.63;5071056;27;97236;-70
2023/01/30 08:38:56;;;;;;;7.03;4.57;;;;;;;8.10;71.09;100187.97;5069345;27;96947;-70
2023/01/30 08:41:22;;;;;;;6.97;4.45;;;;;;;8.12;71.54;100200.19;5062304;27;99259;-72
2023/01/30 08:43:50;;;;;;;6.97;4.28;;;;;;;7.96;71.20;100198.97;5060190;27;98650;-69
2023/01/30 08:46:18;;;;;;;6.40;4.03;;;;;;;7.95;71.84;100197.22;5081414;27;96688;-72
2023/01/30 08:48:45;;;;;;;6.97;4.13;;;;;;;7.87;71.83;100196.66;5070540;27;97297;-72
2023/01/30 08:51:11;;;;;;;7.43;4.03;;;;;;;7.89;71.80;100208.81;5067240;27;99250;-69
2023/01/30 08:53:38;;;;;;;8.88;3.90;;;;;;;7.81;71.63;100199.47;5070882;27;98847;-68
2023/01/30 08:56:05;;;;;;;8.95;3.72;;;;;;;7.89;71.67;100200.94;5076438;27;96701;-69
2023/01/30 08:58:32;;;;;;;11.43;4.25;;;;;;;7.97;71.41;100191.03;5078975;27;96745;-70
2023/01/30 09:01:05;;;;;;;7.53;3.90;;;;;;;8.23;70.45;100199.78;5060063;27;99761;-69
2023/01/30 09:03:31;;;;;;;7.60;3.78;;;;;;;8.54;69.66;100189.06;5050539;27;99159;-69
2023/01/30 09:05:58;;;;;;;5.97;3.42;;;;;;;8.73;68.16;100196.25;5067507;27;97479;-67
2023/01/30 09:08:24;;;;;;;7.22;3.47;;;;;;;8.61;69.22;100193.19;5071615;27;96859;-68
2023/01/30 09:10:51;;;;;;;4.25;3.10;;;;;;;8.47;69.23;100191.06;5069879;27;99358;-69
2023/01/30 09:13:17;;;;;;;5.63;3.55;;;;;;;8.54;69.17;100196.97;5068939;27;98210;-68
2023/01/30 09:15:44;;;;;;;6.43;3.63;;;;;;;8.29;69.99;100199.59;5064356;27;97053;-69
2023/01/30 09:18:12;;;;;;;5.38;3.63;;;;;;;8.62;68.80;100210.72;5068334;27;97822;-69
2023/01/30 09:20:38;;;;;;;4.93;3.22;;;;;;;8.77;68.24;100205.78;5065098;27;99022;-69
2023/01/30 09:23:05;;;;;;;6.85;3.38;;;;;;;8.77;68.15;100210.19;5063910;27;99276;-69
2023/01/30 09:25:31;;;;;;;9.15;4.25;;;;;;;8.90;67.47;100210.59;5064753;27;98943;-68
2023/01/30 09:27:58;;;;;;;6.95;3.30;;;;;;;8.84;67.66;100210.81;5063050;27;97262;-70
2023/01/30 09:30:25;;;;;;;4.30;2.65;;;;;;;9.10;66.71;100214.19;5070341;27;101504;-70
2023/01/30 09:32:51;;;;;;;7.05;2.70;;;;;;;9.33;65.95;100218.59;5073892;27;99425;-70
2023/01/30 09:35:19;;;;;;;8.65;2.78;;;;;;;9.25;66.35;100211.91;5065757;27;97368;-68
2023/01/30 09:37:49;;;;;;;7.25;2.88;;;;;;;9.29;65.79;100208.22;5070152;27;96934;-69
2023/01/30 09:40:18;;;;;;;9.88;2.80;;;;;;;9.34;65.63;100207.13;5070584;27;98963;-69
2023/01/30 09:43:10;;;;;;;6.80;2.45;;;;;;;9.42;65.63;100207.69;5070161;27;98980;-69
2023/01/30 09:45:48;;;;;;;8.43;1.90;;;;;;;9.20;65.79;100214.69;5069540;27;97300;-69
2023/01/30 09:48:20;;;;;;;7.78;2.40;;;;;;;8.90;66.44;100208.81;5075026;27;97566;-69
2023/01/30 09:51:09;;;;;;;7.85;1.88;;;;;;;9.03;66.59;100199.53;5072087;27;98777;-69
2023/01/30 09:53:46;;;;;;;13.52;2.33;;;;;;;9.34;65.98;100203.63;5066412;27;99163;-69
2023/01/30 09:56:13;;;;;;;6.85;1.95;;;;;;;9.41;65.13;100205.09;5067070;27;97019;-69
2023/01/30 09:58:44;;;;;;;6.68;1.88;;;;;;;9.15;66.19;100206.97;5067819;27;96835;-69
2023/01/30 10:01:20;;;;;;;6.65;1.60;;;;;;;9.38;64.62;100198.19;5069814;27;98916;-70
2023/01/30 10:04:11;;;;;;;10.80;1.80;;;;;;;9.48;64.47;100199.53;5069396;27;98898;-70
2023/01/30 10:06:48;;;;;;;9.38;2.00;;;;;;;9.46;64.33;100208.41;5071511;27;96981;-70
2023/01/30 10:09:25;;;;;;;6.22;1.30;;;;;;;9.65;63.48;100196.22;5066056;27;98951;-71
2023/01/30 10:12:02;;;;;;;8.60;1.65;;;;;;;9.59;63.43;100196.47;5069334;27;100622;-69
2023/01/30 10:14:50;;;;;;;6.45;1.10;;;;;;;9.53;62.23;100196.69;5065698;27;98994;-71
2023/01/30 10:17:33;;;;;;;9.20;1.02;;;;;;;9.25;63.09;100198.72;5067645;27;99287;-68
2023/01/30 10:20:25;;;;;;;12.38;2.95;;;;;;;8.94;63.94;100199.00;5063970;27;97112;-69
2023/01/30 10:23:04;;;;;;;9.13;1.50;;;;;;;9.13;63.22;100195.63;5067027;27;98935;-69
2023/01/30 10:25:34;;;;;;;7.35;1.40;;;;;;;9.29;62.12;100213.50;5066225;27;98225;-71
2023/01/30 10:28:06;;;;;;;10.80;1.70;;;;;;;9.63;61.37;100197.22;5074567;27;97509;-72
2023/01/30 10:30:34;;;;;;;13.13;1.65;;;;;;;10.00;60.35;100208.81;5069657;27;98801;-71
2023/01/30 10:33:04;;;;;;;12.57;1.25;;;;;;;9.97;59.19;100201.06;5067650;27;99422;-73
2023/01/30 10:35:39;;;;;;;16.42;2.20;;;;;;;10.06;58.66;100196.28;5074203;27;98948;-70
2023/01/30 10:38:15;;;;;;;17.63;2.15;;;;;;;9.93;58.45;100191.53;5067216;27;97005;-71
2023/01/30 10:40:46;;;;;;;12.60;1.70;;;;;;;9.68;58.55;100188.19;5066265;27;97582;-71
2023/01/30 10:43:28;;;;;;;12.13;2.25;;;;;;;9.66;58.48;100187.38;5065209;27;101694;-70
2023/01/30 10:46:04;;;;;;;9.85;1.92;;;;;;;9.34;58.55;100182.53;5067168;27;99422;-70
2023/01/30 10:48:49;;;;;;;16.35;2.55;;;;;;;9.37;57.86;100178.00;5066074;27;97501;-70
2023/01/30 10:51:25;;;;;;;13.75;1.90;;;;;;;9.25;58.96;100188.19;5063859;27;98784;-69
2023/01/30 10:53:56;;;;;;;;;;;;;;;9.27;57.88;100175.78;5064738;27;98932;-72
2023/01/30 10:56:34;;;;;;;16.45;2.83;;;;;;;9.00;59.17;100185.59;5075968;27;98833;-70
2023/01/30 10:59:14;;;;;;;21.88;1.95;;;;;;;9.17;58.62;100172.66;5066890;27;97073;-69
2023/01/30 11:01:43;;;;;;;12.38;1.70;;;;;;;8.68;59.78;100168.38;5071553;27;96801;-69
2023/01/30 11:04:22;;;;;;;14.00;2.00;;;;;;;9.16;58.02;100173.56;5065498;27;99423;-69
2023/01/30 11:06:50;;;;;;;15.93;1.95;;;;;;;8.99;58.77;100168.94;5071523;27;98758;-71
2023/01/30 11:09:18;;;;;;;16.65;2.20;;;;;;;9.24;58.02;100160.09;5074097;27;97872;-69
2023/01/30 11:11:53;;;;;;;20.23;3.90;;;;;;;9.58;57.04;100160.47;5069283;27;97585;-70
2023/01/30 11:14:19;;;;;;;18.42;2.53;;;;;;;9.81;56.42;100159.50;5067958;27;98825;-69
2023/01/30 11:17:01;;;;;;;20.00;2.50;;;;;;;10.07;55.71;100147.84;5074355;27;98762;-69
2023/01/30 11:19:34;;;;;;;21.00;3.28;;;;;;;9.69;56.43;100145.06;5066383;27;97321;-70
2023/01/30 11:22:02;;;;;;;17.77;2.53;;;;;;;10.10;55.57;100139.81;5064727;27;96856;-69
2023/01/30 11:24:32;;;;;;;8.18;1.90;;;;;;;9.63;56.63;100126.84;5066986;27;98921;-68
2023/01/30 11:27:10;;;;;;;23.80;2.35;;;;;;;10.19;55.34;100118.31;5076353;27;98795;-70
2023/01/30 11:29:39;;;;;;;13.88;1.75;;;;;;;9.88;55.68;100103.78;5076179;27;96829;-69
2023/01/30 11:32:13;;;;;;;9.80;1.60;;;;;;;9.97;55.98;100100.75;5076685;27;96803;-70
2023/01/30 11:34:41;;;;;;;36.13;2.42;;;;;;;10.32;54.86;100103.66;5071506;27;99705;-70
2023/01/30 11:37:14;;;;;;;24.95;2.35;;;;;;;10.20;54.97;100098.91;5074336;27;100128;-69